Quick Links (Output Below):   Max & Min Temps   /   Climate Reports   /   Zone Forecasts
River Forecasts   /   Forestry Forecasts   /   Aviation Forecasts   /   Radars   /   Features

Terminal Aerodrome Forecast (Monticello)

Pick a Site:
Arkadelphia | El Dorado | Fayetteville | Fort Smith | Harrison | Highfill | Hot Springs | Jonesboro
Little Rock | Monticello | Mountain Home | Pine Bluff | Texarkana
 Forecast 

KLLQ 261120Z 2612/2712 16003KT P6SM SKC
     FM261600 23010KT P6SM SCT040
     FM270200 20002KT P6SM SKC=


 Latest METARs (Observations) 
How to Decode METARs
15Z KLLQ 261453Z AUTO 25007KT 10SM 30/23 A3004 RMK AO2 SLP170
         T03000233 $
         
14Z KLLQ 261353Z AUTO 23006KT 10SM CLR 28/23 A3004 RMK AO2 SLP170
         T02830233 $
         
13Z KLLQ 261253Z AUTO 00000KT 10SM CLR 26/23 A3004 RMK AO2 SLP168
         T02610228 $
         
12Z KLLQ 261153Z AUTO 00000KT 8SM CLR 23/21 A3002 RMK AO2 SLP162
         T02280211 10256 20217 51014 $
         
11Z KLLQ 261053Z AUTO 00000KT 9SM CLR 22/21 A3001 RMK AO2 SLP159
         T02170206 $
         
10Z KLLQ 260953Z AUTO 00000KT 10SM CLR 22/21 A2999 RMK AO2 SLP152
         T02220206 $
         
09Z KLLQ 260853Z AUTO 17003KT 10SM CLR 23/21 A2998 RMK AO2 SLP148
         T02330206 $
         
08Z KLLQ 260753Z AUTO 18004KT 10SM 24/21 A2998 RMK AO2 SLP148
         T02390206 $
         
07Z KLLQ 260653Z AUTO 17003KT 10SM CLR 24/21 A2999 RMK AO2 SLP150
         T02390211 $
         
06Z KLLQ 260553Z AUTO 18004KT 10SM CLR 24/22 A2999 RMK AO2 SLP153
         T02440217 10306 20244 403170161 50003 $
         
***** Today's Observations (Above) *****


Back to Main Page
http://www.srh.noaa.gov/lzk/qfcst.php

USA.gov is the U.S. government's official web portal to all federal, state and local government web resources and services.